OIFS  Shahrekord  Airport

Shahrekord, Iran

Add Bookmark
ICAO OIFS
IATA CQD
Type Airport
Status Operational
Latitude
32° 17' 49" N
32.297199
Longitude
50° 50' 31" E
50.842201
Local (GMT +4.5 ) UTC
Jul 27, 2016 11:37 pm Jul 27, 2016 19:07
Sunrise-Sunset Local UTC
Begin Civil Twilight 05:50 am 01:20
Sunrise 06:17 am 01:47
Sunset 08:09 pm 15:39
End Civil Twilight 08:36 pm 16:06
VFR
VFR
MVFR
MVFR
IFR
IFR
LIFR
LIFR
Unknown
Unavailable

Current Weather

METAR Observed MVFR
OIFS 141900Z 06006KT 8000 SCT040 SCT090 26/06 Q1021 Thu, Jul 14, 2016 @ 19:00 UTC
(1 Week, 6 Days, 7 Minutes ago)
Marginal Visual Flight Rules
Wind Visibility Clouds Conditions
060° at 6 knots (11 kph) 7,998 m
  • Scattered at 4,000 ft AGL
  • Scattered at 9,000 ft AGL
  • No significant weather
Temperatures Readings Precipitation
Current Temp
26°C
79°F
Dewpoint
6°C
43°F
Humidity 28%
Altimeter 30.15" Hg
Sea Level Pressure 1,021 mb
Field Elevation
2,078 m
6,818 ft
None Recorded
-
-

CheckWX.com is intended as a tool to help pilots better visualize weather data. It is not intended as a substitute for an official weather briefing obtained from a Flight Service Station. CheckWX.com does not meet the FAA requirements for an official pre-flight weather briefing. Therefore, it's important that pilots still call and obtain an official FSS pre-flight weather briefing.

© 2007-2016 CheckWX.com
19:07:31 UTC